Los Lunas, NM (87031)

04:18:MDT den 23. september 2014 (GMT -0600)
Valencia Y | Change Station
CLOSE
Current Station
Personlig værstasjon
Location: Los Lunas, NM
Høyde over havet: 4852 ft
Nearby Weather Stations

H.o.h 4852 ft 34.81 °N, 106.70 °W | Updated 20 seconds ago

Klart
Klart
57.9 °F
Feels Like 57.9 °F
N
0.0
Vind Variabel Vind from
Gusts 0.0 mph

I dag
High -- | Low -- °F
--% Chance of Precip.
I går
High -- | Low -- °F
Precip. -- tommer
6:55 AM 7:02 PM
Minkende sigd, 1% visible
Lufttrykk 30.24 tommer
Sikt 10.0 eng. mil
Skyet Klart
Duggpunkt 57 °F
Fuktighet 90%
Regn 0.00 tommer
Snødybde 0 in , 3 in , 1 in
UV 0 av 12
Pollen 1.80 av 12
Luftkvalitet Not available.
Flu Activity Not available.
METAR KE80 230935Z AUTO 15004KT 10SM CLR 15/14 A3024 RMK AO2 T01510139

More Conditions Fewer Conditions

Lufttrykk 30.24 tommer
Sikt 10.0 eng. mil
Skyet Klart
Duggpunkt 57 °F
Fuktighet 90%
Regn 0.00 tommer
Snødybde 0 in , 3 in , 1 in
UV 0 av 12
Pollen 1.80 av 12
Luftkvalitet Not available.
Flu Activity Not available.
METAR KE80 230935Z AUTO 15004KT 10SM CLR 15/14 A3024 RMK AO2 T01510139

More Conditions Fewer Conditions

10-Day Weather Forecast

Almanac

Astronomi

Sep. 23, 2014 Oppgang Nedgang
Virkelig tid 06:55 MDT 19:02 MDT
Tussmørke 06:30 MDT 19:27 MDT
Nautisk skumring 06:00 MDT 19:56 MDT
Astronomisk skumring 05:31 MDT 20:26 MDT
Månen 06:22 MDT 18:43 MDT
Lengde av synlig lys 12h 56m
Dagens lengde
12h 06m
Tomorrow will be 2m 10s shorter.
Minkende sigd, 1% of the Moon is Illuminated
I dag
Minkende sigd
Sep 24
Ny
Oct 1
Første kvarter
Oct 8
Fullmåne
Oct 15
Siste kvarter

Dagens maks og min

State Highs State Lows

Community

WunderPhotos

Upload Photos

1,755,645 photos uploaded!

Nearby

Snødybde

Stasjon Depth Høyde over havet
Quemazon 0 in 9500 ft
Wesner Springs 3 in 11120 ft
Chamita 0 in 8400 ft
Silver Creek Divide 1 in 9000 ft
Sierra Blanca 0 in 10280 ft

Earthquake Activity

By Distance Mag. Time & Date
No recent earthquake activity has been reported nearby.
Minimum magnitude displayed is 2.5.

Coastal Water Temperatures

Sted Temperatur
Ingen stasjoner raporterer

Nearby Weather Stations